Time,TemperatureF,DewpointF,PressureIn,WindDirection,WindDirectionDegrees,WindSpeedMPH,WindSpeedGustMPH,Humidity,HourlyPrecipIn,Conditions,Clouds,dailyrainin,SolarRadiationWatts/m^2,SoftwareType,DateUTC
2013-01-18 00:22:00,61.0,8.0,30.21,North,-999,0.0,0.0,12,-99.99,,,-99.99,0.000000,,2013-01-18 08:22:00,
2013-01-18 00:32:00,61.0,8.0,30.21,North,-999,0.0,0.0,12,-99.99,,,-99.99,0.000000,,2013-01-18 08:32:00,
2013-01-18 01:22:00,62.0,7.0,30.21,SE,146,0.0,2.0,11,-99.99,,,-99.99,0.000000,,2013-01-18 09:22:00,
2013-01-18 02:22:00,62.0,3.0,30.21,ESE,109,8.0,12.0,9,-99.99,,,-99.99,0.000000,,2013-01-18 10:22:00,
2013-01-18 03:22:00,63.0,3.0,30.20,ESE,120,5.0,8.0,9,-99.99,,,-99.99,0.000000,,2013-01-18 11:22:00,
2013-01-18 03:32:00,63.0,3.0,30.20,ESE,120,5.0,8.0,9,-99.99,,,-99.99,0.000000,,2013-01-18 11:32:00,
2013-01-18 04:22:00,64.0,1.0,30.20,ESE,102,5.0,8.0,8,-99.99,,,-99.99,0.000000,,2013-01-18 12:22:00,
2013-01-18 04:32:00,64.0,1.0,30.20,ESE,102,5.0,8.0,8,-99.99,,,-99.99,0.000000,,2013-01-18 12:32:00,
2013-01-18 05:22:00,63.0,1.0,30.19,SSE,147,0.0,1.0,8,-99.99,,,-99.99,0.000000,,2013-01-18 13:22:00,
2013-01-18 05:33:00,63.0,1.0,30.19,SSE,147,0.0,1.0,8,-99.99,,,-99.99,0.000000,,2013-01-18 13:33:00,
2013-01-18 06:22:00,60.0,6.0,30.18,East,94,4.0,7.0,11,-99.99,,,-99.99,0.000000,,2013-01-18 14:22:00,
2013-01-18 06:33:00,60.0,6.0,30.18,East,94,4.0,7.0,11,-99.99,,,-99.99,0.000000,,2013-01-18 14:33:00,
2013-01-18 07:23:00,59.0,6.0,30.18,ENE,77,6.0,9.0,12,-99.99,,,-99.99,0.000000,,2013-01-18 15:23:00,
2013-01-18 07:33:00,59.0,6.0,30.18,ENE,77,6.0,9.0,12,-99.99,,,-99.99,0.000000,,2013-01-18 15:33:00,
2013-01-18 08:23:00,61.0,8.0,30.19,ESE,110,4.0,7.0,12,-99.99,,,-99.99,13.000000,,2013-01-18 16:23:00,
2013-01-18 08:33:00,61.0,8.0,30.19,ESE,110,4.0,7.0,12,-99.99,,,-99.99,13.000000,,2013-01-18 16:33:00,
2013-01-18 08:40:00,61.0,12.0,30.21,SSE,153,6.0,8.0,14,-99.99,,,-99.99,265.000000,,2013-01-18 16:40:00,
2013-01-18 09:23:00,61.0,12.0,30.21,SSE,153,6.0,8.0,14,-99.99,,,-99.99,265.000000,,2013-01-18 17:23:00,
2013-01-18 09:33:00,61.0,12.0,30.21,SSE,153,6.0,8.0,14,-99.99,,,-99.99,265.000000,,2013-01-18 17:33:00,
2013-01-18 09:40:00,63.0,9.0,30.23,West,260,2.0,4.0,12,-99.99,,,-99.99,449.000000,,2013-01-18 17:40:00,
2013-01-18 10:23:00,63.0,9.0,30.23,West,260,2.0,4.0,12,-99.99,,,-99.99,449.000000,,2013-01-18 18:23:00,
2013-01-18 10:33:00,63.0,9.0,30.23,West,260,2.0,4.0,12,-99.99,,,-99.99,449.000000,,2013-01-18 18:33:00,
2013-01-18 10:40:00,64.0,21.0,30.24,West,281,1.0,3.0,19,-99.99,,,-99.99,578.000000,,2013-01-18 18:40:00,
2013-01-18 11:22:00,64.0,21.0,30.24,West,281,1.0,3.0,19,-99.99,,,-99.99,578.000000,,2013-01-18 19:22:00,
2013-01-18 11:33:00,64.0,21.0,30.24,West,281,1.0,3.0,19,-99.99,,,-99.99,578.000000,,2013-01-18 19:33:00,
2013-01-18 11:40:00,63.0,24.0,30.22,West,273,3.0,4.0,22,-99.99,,,-99.99,645.000000,,2013-01-18 19:40:00,
2013-01-18 12:23:00,63.0,24.0,30.22,West,273,3.0,4.0,22,-99.99,,,-99.99,645.000000,,2013-01-18 20:23:00,
2013-01-18 12:33:00,63.0,24.0,30.22,West,273,3.0,4.0,22,-99.99,,,-99.99,645.000000,,2013-01-18 20:33:00,
2013-01-18 12:40:00,63.0,25.0,30.20,West,276,3.0,4.0,23,-99.99,,,-99.99,649.000000,,2013-01-18 20:40:00,
2013-01-18 13:22:00,63.0,25.0,30.20,West,276,3.0,4.0,23,-99.99,,,-99.99,649.000000,,2013-01-18 21:22:00,
2013-01-18 13:33:00,63.0,25.0,30.20,West,276,3.0,4.0,23,-99.99,,,-99.99,649.000000,,2013-01-18 21:33:00,
2013-01-18 13:40:00,63.0,24.0,30.18,West,273,4.0,6.0,22,-99.99,,,-99.99,583.000000,,2013-01-18 21:40:00,
2013-01-18 14:22:00,63.0,24.0,30.18,West,273,4.0,6.0,22,-99.99,,,-99.99,583.000000,,2013-01-18 22:22:00,
2013-01-18 14:32:00,63.0,24.0,30.18,West,273,4.0,6.0,22,-99.99,,,-99.99,583.000000,,2013-01-18 22:32:00,
2013-01-18 14:40:00,64.0,24.0,30.18,West,263,4.0,6.0,22,-99.99,,,-99.99,459.000000,,2013-01-18 22:40:00,
2013-01-18 15:22:00,64.0,24.0,30.18,West,263,4.0,6.0,22,-99.99,,,-99.99,459.000000,,2013-01-18 23:22:00,
2013-01-18 15:32:00,64.0,24.0,30.18,West,263,4.0,6.0,22,-99.99,,,-99.99,459.000000,,2013-01-18 23:32:00,
2013-01-18 15:40:00,63.0,23.0,30.17,West,275,3.0,4.0,21,-99.99,,,-99.99,284.000000,,2013-01-18 23:40:00,
2013-01-18 16:22:00,63.0,23.0,30.17,West,275,3.0,4.0,21,-99.99,,,-99.99,284.000000,,2013-01-19 00:22:00,
2013-01-18 16:32:00,63.0,23.0,30.17,West,275,3.0,4.0,21,-99.99,,,-99.99,284.000000,,2013-01-19 00:32:00,
2013-01-18 16:40:00,65.0,23.0,30.18,North,-999,0.0,0.0,20,-99.99,,,-99.99,118.000000,,2013-01-19 00:40:00,
2013-01-18 17:22:00,65.0,23.0,30.18,North,-999,0.0,0.0,20,-99.99,,,-99.99,118.000000,,2013-01-19 01:22:00,
2013-01-18 17:32:00,65.0,23.0,30.18,North,-999,0.0,0.0,20,-99.99,,,-99.99,118.000000,,2013-01-19 01:32:00,
2013-01-18 17:40:00,60.0,21.0,30.18,North,-999,0.0,0.0,22,-99.99,,,-99.99,1.000000,,2013-01-19 01:40:00,
2013-01-18 18:22:00,60.0,21.0,30.18,North,-999,0.0,0.0,22,-99.99,,,-99.99,1.000000,,2013-01-19 02:22:00,
2013-01-18 18:32:00,60.0,21.0,30.18,North,-999,0.0,0.0,22,-99.99,,,-99.99,1.000000,,2013-01-19 02:32:00,
2013-01-18 18:40:00,60.0,18.0,30.18,North,-999,0.0,0.0,19,-99.99,,,-99.99,0.000000,,2013-01-19 02:40:00,
2013-01-18 19:22:00,60.0,18.0,30.18,North,-999,0.0,0.0,19,-99.99,,,-99.99,0.000000,,2013-01-19 03:22:00,
2013-01-18 19:32:00,60.0,18.0,30.18,North,-999,0.0,0.0,19,-99.99,,,-99.99,0.000000,,2013-01-19 03:32:00,
2013-01-18 19:40:00,60.0,12.0,30.18,ENE,70,4.0,8.0,15,-99.99,,,-99.99,0.000000,,2013-01-19 03:40:00,
2013-01-18 20:22:00,60.0,12.0,30.18,ENE,70,4.0,8.0,15,-99.99,,,-99.99,0.000000,,2013-01-19 04:22:00,
2013-01-18 20:32:00,60.0,12.0,30.18,ENE,70,4.0,8.0,15,-99.99,,,-99.99,0.000000,,2013-01-19 04:32:00,
2013-01-18 20:40:00,60.0,9.0,30.19,NNE,12,3.0,5.0,13,-99.99,,,-99.99,0.000000,,2013-01-19 04:40:00,
2013-01-18 21:22:00,60.0,9.0,30.19,NNE,12,3.0,5.0,13,-99.99,,,-99.99,0.000000,,2013-01-19 05:22:00,
2013-01-18 21:32:00,60.0,9.0,30.19,NNE,12,3.0,5.0,13,-99.99,,,-99.99,0.000000,,2013-01-19 05:32:00,
2013-01-18 21:40:00,60.0,9.0,30.19,ENE,76,6.0,7.0,13,-99.99,,,-99.99,0.000000,,2013-01-19 05:40:00,
2013-01-18 22:22:00,60.0,9.0,30.19,ENE,76,6.0,7.0,13,-99.99,,,-99.99,0.000000,,2013-01-19 06:22:00,
2013-01-18 22:32:00,60.0,9.0,30.19,ENE,76,6.0,7.0,13,-99.99,,,-99.99,0.000000,,2013-01-19 06:32:00,
2013-01-18 23:22:00,60.0,6.0,30.20,East,96,3.0,5.0,11,-99.99,,,-99.99,0.000000,,2013-01-19 07:22:00,
2013-01-18 23:40:00,60.0,11.0,30.19,ESE,122,3.0,4.0,14,-99.99,,,-99.99,0.000000,,2013-01-19 07:40:00,